Time;durP1;ratioP1;P1;durP2;ratioP2;P2;SDS_P1;SDS_P2;PMS_P1;PMS_P2;Temp;Humidity;BMP_temperature;BMP_pressure;BME280_temperature;BME280_humidity;BME280_pressure;Samples;Min_cycle;Max_cycle;Signal;HPM_P1;HPM_P2
2021/01/26 00:00:18;;;;;;;40.80;17.27;;;;;;;3.33;76.61;96013.94;4917793;29;20468;-78
2021/01/26 00:02:44;;;;;;;48.80;21.02;;;;;;;3.35;76.83;96024.44;4916469;29;20507;-79
2021/01/26 00:05:11;;;;;;;41.10;18.60;;;;;;;3.28;77.32;96010.72;4916071;29;20032;-79
2021/01/26 00:07:36;;;;;;;37.90;18.40;;;;;;;3.29;76.90;96012.44;4936632;29;20028;-78
2021/01/26 00:10:07;;;;;;;34.47;15.95;;;;;;;3.34;76.60;96010.34;4919014;29;20032;-79
2021/01/26 00:12:32;;;;;;;26.85;13.98;;;;;;;3.47;76.30;96021.06;4931051;29;20569;-78
2021/01/26 00:14:58;;;;;;;22.05;11.73;;;;;;;3.56;75.48;96041.66;4916101;29;20031;-78
2021/01/26 00:17:24;;;;;;;19.40;10.35;;;;;;;3.60;75.14;96028.16;4918563;29;20038;-79
2021/01/26 00:19:49;;;;;;;17.83;9.43;;;;;;;3.65;74.24;96026.13;4921270;29;20559;-78
2021/01/26 00:22:15;;;;;;;16.85;9.00;;;;;;;3.61;73.62;96023.72;4941184;29;20457;-78
2021/01/26 00:24:41;;;;;;;20.38;9.65;;;;;;;3.50;74.26;96023.53;4929968;29;20051;-78
2021/01/26 00:27:06;;;;;;;25.02;9.88;;;;;;;3.51;74.43;96028.72;4931693;29;20024;-78
2021/01/26 00:29:32;;;;;;;28.15;15.02;;;;;;;3.54;74.19;96011.81;4915928;29;20032;-79
2021/01/26 00:31:58;;;;;;;18.17;9.80;;;;;;;3.52;73.95;96035.72;4915697;29;20064;-78
2021/01/26 00:34:23;;;;;;;22.75;10.80;;;;;;;3.58;74.12;96021.28;4915630;29;20040;-78
2021/01/26 00:36:49;;;;;;;21.23;10.07;;;;;;;3.52;74.68;96001.34;4915801;29;20492;-77
2021/01/26 00:39:14;;;;;;;26.33;11.88;;;;;;;3.51;73.95;96012.00;4915573;29;20071;-78
2021/01/26 00:41:40;;;;;;;21.77;10.88;;;;;;;3.42;74.77;96000.19;4927894;29;20015;-78
2021/01/26 00:44:05;;;;;;;20.42;9.88;;;;;;;3.46;74.79;96003.50;4918621;29;20468;-78
2021/01/26 00:46:31;;;;;;;15.98;8.38;;;;;;;3.53;75.43;96005.69;4926421;29;20027;-78
2021/01/26 00:48:57;;;;;;;24.40;10.40;;;;;;;3.48;75.17;96014.81;4920006;29;20377;-78
2021/01/26 00:51:22;;;;;;;22.92;11.25;;;;;;;3.37;75.47;95978.47;4925118;29;20086;-78
2021/01/26 00:53:48;;;;;;;27.70;13.18;;;;;;;3.49;74.95;95987.47;4944968;29;20473;-79
2021/01/26 00:56:13;;;;;;;26.40;12.55;;;;;;;3.47;75.63;95990.22;4931573;29;20110;-79
2021/01/26 00:58:39;;;;;;;22.67;10.57;;;;;;;3.57;74.88;95991.34;4934256;29;20032;-78
2021/01/26 01:01:05;;;;;;;27.33;11.63;;;;;;;3.63;76.02;95992.78;4919197;29;20028;-78
2021/01/26 01:03:31;;;;;;;23.63;11.75;;;;;;;3.63;75.01;95980.41;4915020;29;20051;-77
2021/01/26 01:05:57;;;;;;;22.77;11.55;;;;;;;3.72;75.84;95976.38;4921212;29;20086;-78
2021/01/26 01:08:23;;;;;;;19.33;11.00;;;;;;;3.62;75.71;95968.16;4918138;29;20110;-78
2021/01/26 01:10:50;;;;;;;20.45;10.60;;;;;;;3.53;75.47;95979.28;4918429;29;20617;-78
2021/01/26 01:13:16;;;;;;;22.25;10.25;;;;;;;3.45;75.77;95983.28;4934023;29;20492;-78
2021/01/26 01:15:42;;;;;;;22.17;10.80;;;;;;;3.52;75.94;95984.63;4934186;29;20031;-78
2021/01/26 01:18:09;;;;;;;20.70;10.30;;;;;;;3.48;76.51;95981.31;4918098;29;20035;-78
2021/01/26 01:20:34;;;;;;;17.55;9.55;;;;;;;3.42;76.52;95986.97;4899772;29;20055;-78
2021/01/26 01:23:00;;;;;;;17.40;10.00;;;;;;;3.25;76.49;95968.63;4920740;29;20480;-78
2021/01/26 01:25:26;;;;;;;18.98;10.15;;;;;;;3.12;77.72;95965.00;4917577;29;20127;-78
2021/01/26 01:27:52;;;;;;;16.52;10.07;;;;;;;3.00;79.43;95968.34;4933788;29;20028;-78
2021/01/26 01:30:23;;;;;;;19.73;10.20;;;;;;;2.91;79.74;95958.31;4933209;29;20504;-78
2021/01/26 01:32:49;;;;;;;16.13;9.13;;;;;;;2.91;79.96;95958.31;4930626;29;20039;-78
2021/01/26 01:35:15;;;;;;;15.32;9.18;;;;;;;2.82;80.48;95961.47;4938278;29;20436;-78
2021/01/26 01:37:41;;;;;;;25.95;11.07;;;;;;;2.82;80.58;95975.53;4949237;29;20039;-78
2021/01/26 01:40:08;;;;;;;22.83;11.18;;;;;;;2.82;80.16;95954.41;4903436;29;20171;-78
2021/01/26 01:42:34;;;;;;;20.98;10.80;;;;;;;2.82;80.31;95953.56;4914345;29;20032;-78
2021/01/26 01:44:59;;;;;;;22.15;10.98;;;;;;;2.94;79.87;95959.00;4914570;29;20051;-78
2021/01/26 01:47:31;;;;;;;24.10;12.02;;;;;;;3.03;80.22;95968.16;4930000;29;20035;-78
2021/01/26 01:49:59;;;;;;;38.45;15.88;;;;;;;3.05;78.96;95945.16;4927659;29;20384;-78
2021/01/26 01:52:28;;;;;;;31.90;15.52;;;;;;;2.98;80.09;95970.22;4925490;29;20047;-78
2021/01/26 01:55:20;;;;;;;33.90;15.18;;;;;;;3.11;79.30;95950.06;4917589;29;20019;-78
2021/01/26 01:57:51;;;;;;;35.50;17.17;;;;;;;3.08;79.90;95960.81;4899115;29;20036;-78
2021/01/26 02:00:19;;;;;;;37.55;16.05;;;;;;;3.16;79.93;95961.25;4914337;29;20024;-78
2021/01/26 02:02:51;;;;;;;35.95;16.65;;;;;;;3.24;79.90;95945.78;4922337;29;20128;-78
2021/01/26 02:05:17;;;;;;;33.97;16.63;;;;;;;3.28;79.21;95952.59;4914291;29;20519;-78
2021/01/26 02:07:43;;;;;;;23.42;12.27;;;;;;;3.28;78.50;95974.59;4917354;29;20118;-78
2021/01/26 02:10:10;;;;;;;28.98;13.88;;;;;;;3.26;78.04;95973.81;4933294;29;20122;-78
2021/01/26 02:12:35;;;;;;;23.13;11.70;;;;;;;3.27;78.77;95974.66;4915432;29;20031;-78
2021/01/26 02:15:03;;;;;;;26.10;11.73;;;;;;;3.33;78.52;95966.38;4930008;29;20660;-78
2021/01/26 02:17:51;;;;;;;27.77;11.63;;;;;;;3.45;78.11;95978.84;4938793;28;20090;-78
2021/01/26 02:20:50;;;;;;;15.13;7.00;;;;;;;3.53;75.96;95957.28;4933206;29;20032;-78
2021/01/26 02:23:42;;;;;;;16.02;9.48;;;;;;;3.59;77.05;95951.63;4933017;29;20051;-78
2021/01/26 02:26:43;;;;;;;17.35;8.82;;;;;;;3.64;77.18;95979.47;4933158;29;20051;-78
2021/01/26 02:29:12;;;;;;;24.23;10.55;;;;;;;3.60;76.89;95959.44;4932704;29;20098;-78
2021/01/26 02:31:47;;;;;;;22.83;11.00;;;;;;;3.61;76.89;95962.94;4916797;29;20508;-78
2021/01/26 02:34:50;;;;;;;18.65;9.30;;;;;;;3.60;76.61;95959.44;4932739;29;20118;-79
2021/01/26 02:37:27;;;;;;;17.80;9.30;;;;;;;3.44;77.75;95963.97;4922996;29;20040;-78
2021/01/26 02:40:12;;;;;;;20.33;8.73;;;;;;;3.35;77.98;95984.78;4925640;29;20036;-79
2021/01/26 02:42:56;;;;;;;16.10;8.05;;;;;;;3.38;78.10;95987.25;4917663;29;20035;-78
2021/01/26 02:45:50;;;;;;;17.40;9.20;;;;;;;3.35;78.48;95982.16;4917535;29;20035;-79
2021/01/26 02:48:34;;;;;;;23.98;8.75;;;;;;;3.35;78.87;95996.22;4964084;28;20028;-79
2021/01/26 02:51:11;;;;;;;20.77;9.18;;;;;;;3.46;78.20;95992.94;4932179;29;20028;-79
2021/01/26 02:53:56;;;;;;;25.05;11.20;;;;;;;3.50;78.63;95990.03;4918560;29;20036;-78
2021/01/26 02:56:50;;;;;;;26.00;12.73;;;;;;;3.56;77.02;96013.44;4920815;29;20134;-79
2021/01/26 02:59:38;;;;;;;30.23;14.45;;;;;;;3.76;77.37;96007.81;4936812;29;20028;-79
2021/01/26 03:02:35;;;;;;;22.63;11.50;;;;;;;3.77;77.19;96006.88;4908031;29;20401;-79
2021/01/26 03:05:01;;;;;;;24.48;10.95;;;;;;;3.87;77.38;96019.56;4929695;29;20039;-78
2021/01/26 03:07:29;;;;;;;21.60;10.32;;;;;;;3.76;76.70;96030.75;4928622;29;20481;-78
2021/01/26 03:10:00;;;;;;;21.35;10.20;;;;;;;3.84;77.19;96047.84;4928487;29;20032;-79
2021/01/26 03:12:34;;;;;;;16.92;9.05;;;;;;;3.86;75.65;96047.78;4944709;29;20024;-77
2021/01/26 03:15:18;;;;;;;13.40;7.28;;;;;;;3.93;73.37;96025.31;4928886;29;20498;-77
2021/01/26 03:17:47;;;;;;;12.15;6.93;;;;;;;4.03;72.76;96036.19;4919900;29;20051;-77
2021/01/26 03:20:18;;;;;;;11.98;7.13;;;;;;;4.12;72.25;96046.22;4922748;29;20063;-79
2021/01/26 03:22:51;;;;;;;13.68;6.55;;;;;;;4.19;71.74;96047.53;4918615;29;20075;-78
2021/01/26 03:25:19;;;;;;;8.98;5.40;;;;;;;4.16;70.29;96053.88;4951927;29;20048;-79
2021/01/26 03:27:46;;;;;;;13.45;6.60;;;;;;;4.12;69.61;96062.91;4918316;29;20039;-78
2021/01/26 03:30:17;;;;;;;11.68;6.15;;;;;;;4.23;69.92;96072.88;4946010;29;20407;-79
2021/01/26 03:32:47;;;;;;;11.02;5.68;;;;;;;4.21;69.44;96053.59;4959769;28;20036;-79
2021/01/26 03:35:14;;;;;;;13.18;6.40;;;;;;;4.35;68.36;96053.59;4943643;28;20090;-79
2021/01/26 03:37:41;;;;;;;18.13;8.15;;;;;;;4.40;68.39;96059.44;4935517;29;20072;-79
2021/01/26 03:40:07;;;;;;;15.20;8.45;;;;;;;4.43;68.49;96061.91;4951830;28;20032;-79
2021/01/26 03:42:34;;;;;;;20.88;9.85;;;;;;;4.48;68.39;96061.63;4920082;29;20405;-77
2021/01/26 03:44:59;;;;;;;28.00;11.73;;;;;;;4.46;68.31;96084.72;4924584;29;20027;-78
2021/01/26 03:47:49;;;;;;;15.82;8.23;;;;;;;4.47;68.13;96081.94;4916248;29;20410;-78
2021/01/26 03:50:18;;;;;;;18.67;8.68;;;;;;;4.55;68.46;96082.34;4931015;29;20523;-78
2021/01/26 03:53:00;;;;;;;23.15;8.60;;;;;;;4.51;68.36;96085.25;4936845;29;20036;-78
2021/01/26 03:55:49;;;;;;;13.38;6.82;;;;;;;4.58;66.77;96099.84;4936694;29;20494;-78
2021/01/26 03:58:23;;;;;;;13.40;6.97;;;;;;;4.55;66.07;96103.53;4951376;29;20028;-78
2021/01/26 04:01:13;;;;;;;14.65;6.93;;;;;;;4.57;66.65;96104.28;4927057;29;20032;-78
2021/01/26 04:03:50;;;;;;;14.63;6.68;;;;;;;4.62;66.41;96110.13;4917493;29;20036;-78
2021/01/26 04:06:29;;;;;;;12.65;6.80;;;;;;;4.66;66.07;96122.25;4929340;29;20035;-78
2021/01/26 04:08:57;;;;;;;14.90;8.82;;;;;;;4.64;66.66;96118.84;4925080;29;20056;-78
2021/01/26 04:11:30;;;;;;;19.05;9.10;;;;;;;4.62;66.00;96103.97;4916245;29;20115;-78
2021/01/26 04:14:07;;;;;;;17.33;8.18;;;;;;;4.61;65.91;96113.75;4918515;29;20036;-78
2021/01/26 04:16:37;;;;;;;16.45;8.63;;;;;;;4.69;65.85;96095.56;4920140;29;20083;-79
2021/01/26 04:19:05;;;;;;;17.48;8.73;;;;;;;4.75;66.67;96097.84;4947661;28;20032;-78
2021/01/26 04:21:32;;;;;;;20.35;9.40;;;;;;;4.82;68.04;96108.91;4916282;29;20040;-78
2021/01/26 04:23:58;;;;;;;18.65;9.23;;;;;;;4.77;65.97;96109.19;4947269;28;20087;-79
2021/01/26 04:26:25;;;;;;;20.23;9.90;;;;;;;4.81;65.63;96126.59;4915529;29;20116;-78
2021/01/26 04:28:51;;;;;;;15.23;8.18;;;;;;;4.82;65.49;96122.16;4932586;29;20032;-79
2021/01/26 04:31:18;;;;;;;23.63;11.80;;;;;;;4.87;65.76;96114.75;4934779;29;20465;-78
2021/01/26 04:33:44;;;;;;;13.60;6.53;;;;;;;4.85;65.54;96120.16;4934605;29;20407;-77
2021/01/26 04:36:12;;;;;;;22.35;8.13;;;;;;;4.88;65.86;96122.63;4950569;28;20054;-78
2021/01/26 04:38:38;;;;;;;19.15;9.82;;;;;;;4.76;68.71;96136.63;4934879;29;20087;-78
2021/01/26 04:41:50;;;;;;;22.80;12.45;;;;;;;4.61;70.26;96134.91;4931985;29;20024;-78
2021/01/26 04:44:43;;;;;;;24.45;12.68;;;;;;;4.30;71.38;96148.31;4952532;28;20032;-78
2021/01/26 04:47:23;;;;;;;24.58;11.98;;;;;;;4.21;71.34;96143.56;4927722;29;20405;-78
2021/01/26 04:50:00;;;;;;;22.58;12.10;;;;;;;4.19;71.67;96142.78;4935547;29;20075;-78
2021/01/26 04:52:52;;;;;;;23.80;12.07;;;;;;;4.14;72.32;96148.34;4950656;29;20027;-81
2021/01/26 04:55:57;;;;;;;27.88;13.90;;;;;;;4.21;72.27;96152.34;4934290;29;20055;-79
2021/01/26 04:58:41;;;;;;;21.75;11.48;;;;;;;4.33;71.65;96156.06;4923675;29;20134;-79
2021/01/26 05:01:22;;;;;;;22.00;11.70;;;;;;;4.36;72.32;96154.09;4933598;29;20066;-79
2021/01/26 05:03:57;;;;;;;22.20;12.27;;;;;;;4.41;71.87;96172.31;4934076;29;20031;-79
2021/01/26 05:06:26;;;;;;;28.23;13.52;;;;;;;4.48;71.49;96178.09;4937373;29;20111;-78
2021/01/26 05:08:54;;;;;;;21.05;10.85;;;;;;;4.43;70.63;96161.66;4914773;29;20059;-79
2021/01/26 05:11:26;;;;;;;26.23;12.32;;;;;;;4.50;71.40;96174.41;4915297;29;20469;-78
2021/01/26 05:13:57;;;;;;;26.77;12.40;;;;;;;4.37;71.55;96166.34;4946921;28;20039;-78
2021/01/26 05:16:32;;;;;;;21.80;12.02;;;;;;;4.40;70.72;96152.06;4943255;29;20027;-79
2021/01/26 05:19:14;;;;;;;30.88;14.05;;;;;;;4.42;70.72;96168.75;4933471;29;20035;-79
2021/01/26 05:21:47;;;;;;;72.60;39.85;;;;;;;4.38;72.06;96176.00;4918179;29;20035;-76
2021/01/26 05:24:20;;;;;;;50.25;23.95;;;;;;;4.42;71.54;96181.97;4933475;29;20114;-76
2021/01/26 05:26:45;;;;;;;57.90;28.95;;;;;;;4.42;72.67;96176.69;4929408;29;20044;-75
2021/01/26 05:29:13;;;;;;;70.75;27.20;;;;;;;4.46;72.08;96180.81;4925941;29;89159;-77
2021/01/26 05:31:40;;;;;;;56.17;28.77;;;;;;;4.57;71.93;96172.25;4917065;28;101610;-76
2021/01/26 05:34:09;;;;;;;61.88;29.98;;;;;;;4.55;72.40;96185.59;4937322;29;20092;-76
2021/01/26 05:36:36;;;;;;;56.40;26.92;;;;;;;4.55;72.16;96187.38;4904197;29;20040;-85
2021/01/26 05:39:03;;;;;;;50.50;25.40;;;;;;;4.57;71.39;96183.69;4919196;29;20508;-76
2021/01/26 05:41:30;;;;;;;56.60;26.00;;;;;;;4.61;70.80;96171.13;4927395;29;20032;-78
2021/01/26 05:43:57;;;;;;;59.92;26.88;;;;;;;4.67;70.57;96171.63;4924914;29;20028;-79
2021/01/26 05:46:34;;;;;;;57.00;27.98;;;;;;;4.72;70.76;96185.41;4905563;29;20072;-78
2021/01/26 05:48:59;;;;;;;53.15;26.58;;;;;;;4.69;71.49;96190.91;4944972;29;20031;-76
2021/01/26 05:51:26;;;;;;;47.10;23.45;;;;;;;4.67;70.62;96211.34;4945222;29;20032;-75
2021/01/26 05:54:01;;;;;;;36.85;19.13;;;;;;;4.72;70.48;96198.66;4933435;29;20046;-75
2021/01/26 05:56:28;;;;;;;40.85;19.95;;;;;;;4.75;70.90;96185.22;4926032;29;20575;-75
2021/01/26 05:58:54;;;;;;;39.47;20.05;;;;;;;4.79;71.18;96207.09;4942318;29;20032;-76
2021/01/26 06:01:32;;;;;;;43.38;22.33;;;;;;;4.80;70.50;96191.09;4937471;29;20408;-78
2021/01/26 06:04:16;;;;;;;39.55;20.80;;;;;;;4.71;70.34;96178.41;4945249;29;20052;-78
2021/01/26 06:06:55;;;;;;;53.35;26.90;;;;;;;4.81;70.41;96192.81;4917117;29;20039;-77
2021/01/26 06:09:29;;;;;;;74.15;36.45;;;;;;;4.80;71.06;96209.63;4940775;28;20020;-77
2021/01/26 06:12:04;;;;;;;60.28;28.90;;;;;;;4.76;71.00;96221.38;4901880;29;20043;-78
2021/01/26 06:14:30;;;;;;;66.18;33.80;;;;;;;4.67;71.26;96208.69;4957643;28;20527;-77
2021/01/26 06:17:06;;;;;;;79.03;39.50;;;;;;;4.84;72.17;96216.44;4933444;29;20035;-78
2021/01/26 06:19:32;;;;;;;65.57;32.88;;;;;;;4.85;71.92;96207.56;4925820;29;20035;-77
2021/01/26 06:21:58;;;;;;;49.90;25.38;;;;;;;4.88;69.89;96209.19;4916800;29;20058;-78
2021/01/26 06:24:26;;;;;;;45.55;21.45;;;;;;;4.91;70.41;96211.63;4929497;29;20127;-77
2021/01/26 06:27:12;;;;;;;39.67;20.00;;;;;;;4.83;69.57;96214.75;4920173;29;20040;-78
2021/01/26 06:30:08;;;;;;;45.45;21.33;;;;;;;4.86;70.20;96213.72;4932585;29;20028;-78
2021/01/26 06:32:58;;;;;;;32.85;17.05;;;;;;;4.99;69.43;96222.59;4933851;29;20038;-78
2021/01/26 06:35:34;;;;;;;31.10;16.73;;;;;;;5.03;68.48;96233.88;4932272;29;20032;-77
2021/01/26 06:38:21;;;;;;;42.35;18.90;;;;;;;4.97;69.15;96252.78;4948721;29;20132;-78
2021/01/26 06:40:55;;;;;;;34.30;16.27;;;;;;;4.95;68.97;96247.59;4932154;29;20034;-78
2021/01/26 06:43:54;;;;;;;34.95;16.88;;;;;;;4.97;69.17;96250.13;4932383;29;20131;-78
2021/01/26 06:47:01;;;;;;;27.23;14.25;;;;;;;5.01;69.86;96255.19;4930808;29;20475;-78
2021/01/26 06:49:45;;;;;;;27.48;11.77;;;;;;;4.93;70.84;96265.38;4902049;29;20040;-77
2021/01/26 06:52:25;;;;;;;25.10;12.52;;;;;;;4.91;72.31;96264.63;4913423;29;20110;-77
2021/01/26 06:54:59;;;;;;;27.40;14.40;;;;;;;5.05;72.20;96279.66;4913769;29;20520;-77
2021/01/26 06:57:44;;;;;;;19.67;10.25;;;;;;;5.00;72.96;96277.31;4913319;29;20036;-77
2021/01/26 07:00:21;;;;;;;19.70;10.18;;;;;;;5.06;73.84;96286.69;4913691;29;20489;-77
2021/01/26 07:03:18;;;;;;;27.88;11.10;;;;;;;5.08;74.21;96284.78;4913424;29;20043;-77
2021/01/26 07:05:55;;;;;;;26.08;13.73;;;;;;;5.14;73.99;96281.75;4921890;29;20031;-77
2021/01/26 07:08:36;;;;;;;20.40;11.27;;;;;;;5.12;75.96;96292.47;4913697;29;20420;-77
2021/01/26 07:11:32;;;;;;;20.30;11.10;;;;;;;5.18;77.18;96305.34;4913212;29;20036;-78
2021/01/26 07:14:06;;;;;;;17.08;8.82;;;;;;;5.03;78.31;96319.50;4927439;29;20032;-79
2021/01/26 07:16:44;;;;;;;16.95;8.32;;;;;;;4.96;79.77;96326.13;4932273;29;20127;-77
2021/01/26 07:19:35;;;;;;;17.10;9.73;;;;;;;4.93;80.46;96332.44;4924618;29;20090;-78
2021/01/26 07:22:19;;;;;;;16.10;8.45;;;;;;;4.93;81.24;96348.34;4914868;29;20031;-78
2021/01/26 07:25:13;;;;;;;24.20;8.95;;;;;;;4.89;81.81;96346.81;4916761;29;20500;-78
2021/01/26 07:28:11;;;;;;;19.40;11.20;;;;;;;4.87;84.04;96364.59;4928364;29;20031;-79
2021/01/26 07:30:45;;;;;;;20.15;9.80;;;;;;;4.84;84.52;96364.78;4935840;29;20038;-78
2021/01/26 07:33:17;;;;;;;17.20;7.60;;;;;;;4.75;84.70;96365.31;4944040;29;20024;-78
2021/01/26 07:36:00;;;;;;;14.73;7.55;;;;;;;4.71;86.19;96379.66;4932636;29;20035;-78
2021/01/26 07:39:05;;;;;;;18.42;9.82;;;;;;;4.57;88.58;96389.34;4916259;29;20032;-79
2021/01/26 07:41:36;;;;;;;35.85;18.17;;;;;;;4.46;87.56;96384.66;4896768;29;20044;-78
2021/01/26 07:44:31;;;;;;;23.98;13.73;;;;;;;4.23;86.66;96387.75;4924293;29;20028;-77
2021/01/26 07:47:21;;;;;;;22.02;11.68;;;;;;;4.01;88.50;96384.56;4945534;29;20110;-77
2021/01/26 07:49:52;;;;;;;23.30;14.80;;;;;;;3.80;88.76;96378.66;4935174;29;20094;-77
2021/01/26 07:52:18;;;;;;;14.05;7.07;;;;;;;3.66;89.78;96382.03;4934933;29;20488;-77
2021/01/26 07:54:54;;;;;;;12.73;6.95;;;;;;;3.70;90.91;96393.31;4935028;29;20032;-77
2021/01/26 07:57:20;;;;;;;8.65;5.53;;;;;;;3.51;90.45;96396.06;4935047;29;20460;-78
2021/01/26 07:59:55;;;;;;;9.80;5.95;;;;;;;3.47;91.05;96401.63;4935209;29;20046;-77
2021/01/26 08:02:31;;;;;;;6.55;4.15;;;;;;;3.10;90.88;96402.66;4942824;29;20565;-78
2021/01/26 08:04:56;;;;;;;11.70;4.80;;;;;;;3.01;92.37;96404.00;4932012;29;20020;-77
2021/01/26 08:07:30;;;;;;;7.30;3.80;;;;;;;2.86;92.74;96415.31;4931618;29;20035;-78
2021/01/26 08:10:02;;;;;;;12.15;6.40;;;;;;;2.77;93.71;96425.50;4916029;29;20037;-78
2021/01/26 08:12:30;;;;;;;10.73;6.53;;;;;;;2.67;94.22;96425.94;4931578;29;20114;-77
2021/01/26 08:15:36;;;;;;;21.25;10.82;;;;;;;2.63;94.37;96437.56;4917043;29;20472;-77
2021/01/26 08:18:31;;;;;;;24.83;13.05;;;;;;;2.66;95.30;96445.34;4928718;29;20587;-79
2021/01/26 08:20:56;;;;;;;15.30;8.23;;;;;;;2.68;94.27;96438.19;4938068;29;20020;-78
2021/01/26 08:23:29;;;;;;;28.08;13.60;;;;;;;2.56;94.15;96446.69;4939487;29;20046;-78
2021/01/26 08:25:55;;;;;;;33.50;16.63;;;;;;;2.58;94.85;96458.06;4915434;29;20052;-78
2021/01/26 08:28:47;;;;;;;30.80;15.20;;;;;;;2.61;94.96;96455.28;4923308;29;20019;-80
2021/01/26 08:31:39;;;;;;;16.87;9.77;;;;;;;2.65;95.60;96470.00;4898212;29;20528;-79
2021/01/26 08:34:25;;;;;;;9.25;2.40;;;;;;;2.68;95.54;96475.13;4922481;29;20332;-78
2021/01/26 08:37:09;;;;;;;3.53;3.13;;;;;;;2.72;94.51;96489.06;4915557;29;20040;-78
2021/01/26 08:39:44;;;;;;;1.13;1.00;;;;;;;2.59;94.11;96486.16;4915232;29;20523;-79
2021/01/26 08:42:11;;;;;;;0.45;0.45;;;;;;;2.50;93.87;96497.13;4929635;29;20571;-78
2021/01/26 08:44:37;;;;;;;1.10;0.85;;;;;;;2.56;92.95;96510.03;4950256;28;20087;-79
2021/01/26 08:48:12;;;;;;;3.30;1.50;;;;;;;2.44;94.52;96517.69;4934111;29;20028;-78
2021/01/26 08:51:02;;;;;;;1.42;1.13;;;;;;;2.33;95.38;96515.56;4926134;29;20047;-78
2021/01/26 08:53:28;;;;;;;0.70;0.70;;;;;;;2.35;96.31;96516.31;4949677;29;20039;-79
2021/01/26 08:55:59;;;;;;;1.58;1.15;;;;;;;2.30;96.29;96520.09;4934325;29;20039;-78
2021/01/26 08:58:49;;;;;;;2.50;0.95;;;;;;;2.30;97.90;96520.97;4934176;29;20135;-78
2021/01/26 09:01:24;;;;;;;3.08;2.75;;;;;;;2.30;97.55;96515.69;4930235;29;20027;-78
2021/01/26 09:03:53;;;;;;;8.18;2.17;;;;;;;2.45;98.20;96524.66;4933373;29;20027;-78
2021/01/26 09:06:43;;;;;;;3.97;2.55;;;;;;;2.41;97.91;96523.97;4919183;29;20024;-79
2021/01/26 09:09:19;;;;;;;0.93;0.85;;;;;;;2.46;96.55;96527.22;4923963;29;20111;-78
2021/01/26 09:11:45;;;;;;;0.68;0.68;;;;;;;2.38;96.85;96529.38;4915949;29;20040;-79
2021/01/26 09:14:36;;;;;;;0.82;0.82;;;;;;;2.23;98.00;96532.72;4914815;29;20028;-76
2021/01/26 09:17:17;;;;;;;0.95;0.95;;;;;;;2.36;98.38;96531.22;4946419;28;20027;-78
2021/01/26 09:19:48;;;;;;;0.55;0.50;;;;;;;2.44;98.42;96530.88;4922341;29;20422;-77
2021/01/26 09:22:23;;;;;;;0.52;0.52;;;;;;;2.46;97.30;96537.78;4930435;29;20024;-77
2021/01/26 09:24:55;;;;;;;1.67;1.15;;;;;;;2.45;97.89;96541.38;4914372;29;20052;-77
2021/01/26 09:27:28;;;;;;;0.47;0.47;;;;;;;2.52;97.78;96547.22;4914718;29;20016;-77
2021/01/26 09:30:03;;;;;;;;;;;;;;;2.60;97.67;96540.66;4914923;29;20032;-77
2021/01/26 09:32:28;;;;;;;0.52;0.47;;;;;;;2.64;97.33;96538.72;4929774;29;19922;-77
2021/01/26 09:34:54;;;;;;;0.63;0.63;;;;;;;2.43;97.43;96527.38;4933246;29;20031;-77
2021/01/26 09:37:24;;;;;;;1.08;0.85;;;;;;;2.59;97.79;96538.06;4933369;29;20062;-77
2021/01/26 09:39:50;;;;;;;0.98;0.82;;;;;;;2.61;96.80;96542.38;4938857;28;20028;-77
2021/01/26 09:42:22;;;;;;;3.45;1.98;;;;;;;2.59;97.49;96543.34;4946254;28;20035;-77
2021/01/26 09:45:02;;;;;;;1.27;0.70;;;;;;;2.57;97.57;96543.44;4939651;28;20507;-76
2021/01/26 09:47:28;;;;;;;0.50;0.50;;;;;;;2.61;96.50;96537.09;4957902;28;20130;-76
2021/01/26 09:50:08;;;;;;;1.10;0.65;;;;;;;2.54;97.38;96540.94;4932582;29;20385;-78
2021/01/26 09:52:34;;;;;;;1.42;0.95;;;;;;;2.46;97.56;96537.78;4932908;29;20035;-78
2021/01/26 09:55:04;;;;;;;0.32;0.32;;;;;;;2.54;97.65;96538.28;4933343;29;20148;-78
2021/01/26 09:57:30;;;;;;;0.47;0.47;;;;;;;2.45;97.96;96536.09;4933573;29;20035;-78
2021/01/26 09:59:56;;;;;;;0.30;0.30;;;;;;;2.35;97.98;96547.97;4948857;29;20035;-78
2021/01/26 10:02:22;;;;;;;0.40;0.40;;;;;;;2.25;98.48;96551.94;4917188;29;20028;-78
2021/01/26 10:04:48;;;;;;;0.40;0.40;;;;;;;2.19;99.05;96541.69;4916860;29;20394;-78
2021/01/26 10:07:15;;;;;;;0.38;0.38;;;;;;;2.23;99.64;96540.63;4932751;29;20053;-78
2021/01/26 10:09:41;;;;;;;0.55;0.52;;;;;;;2.34;99.41;96548.06;4947961;29;20041;-79
2021/01/26 10:12:19;;;;;;;0.25;0.25;;;;;;;2.38;98.29;96555.75;4913826;29;20038;-78
2021/01/26 10:15:06;;;;;;;0.40;0.40;;;;;;;2.33;98.78;96562.19;4914695;29;20039;-78
2021/01/26 10:17:32;;;;;;;0.52;0.52;;;;;;;2.34;99.60;96542.78;4918005;29;20067;-78
2021/01/26 10:19:58;;;;;;;0.55;0.55;;;;;;;2.51;99.16;96551.63;4929660;29;22208;-78
2021/01/26 10:22:23;;;;;;;0.50;0.50;;;;;;;2.68;98.82;96556.97;4913968;29;20039;-78
2021/01/26 10:24:49;;;;;;;1.05;0.95;;;;;;;2.61;97.91;96547.66;4929331;29;20063;-79
2021/01/26 10:27:23;;;;;;;0.70;0.70;;;;;;;2.67;98.14;96555.28;4926010;29;20036;-78
2021/01/26 10:29:49;;;;;;;0.32;0.32;;;;;;;2.70;97.95;96552.50;4924694;29;20035;-76
2021/01/26 10:32:38;;;;;;;0.70;0.70;;;;;;;2.65;97.35;96546.56;4920427;29;20032;-76
2021/01/26 10:35:04;;;;;;;0.28;0.28;;;;;;;2.43;96.24;96537.91;4929447;29;20028;-76
2021/01/26 10:37:31;;;;;;;0.35;0.35;;;;;;;2.50;97.54;96551.69;4913403;29;20519;-76
2021/01/26 10:40:15;;;;;;;0.20;0.20;;;;;;;2.53;97.87;96547.13;4963420;28;20036;-76
2021/01/26 10:42:46;;;;;;;0.20;0.20;;;;;;;2.49;98.44;96542.91;4917288;29;20024;-77
2021/01/26 10:45:13;;;;;;;0.75;0.75;;;;;;;2.56;98.40;96549.63;4929294;29;20020;-77
2021/01/26 10:47:40;;;;;;;0.68;0.68;;;;;;;2.57;97.31;96547.84;4961078;28;20024;-76
2021/01/26 10:50:35;;;;;;;1.88;1.17;;;;;;;2.76;97.20;96551.34;4932816;29;20027;-77
2021/01/26 10:53:00;;;;;;;0.65;0.65;;;;;;;2.51;96.91;96553.41;4922015;29;20492;-77
2021/01/26 10:55:26;;;;;;;0.30;0.30;;;;;;;2.60;97.62;96550.34;4927484;29;20071;-76
2021/01/26 10:57:52;;;;;;;0.93;0.85;;;;;;;2.58;97.55;96553.06;4935808;29;20393;-76
2021/01/26 11:00:23;;;;;;;0.60;0.60;;;;;;;2.61;97.21;96552.94;4936966;29;20404;-78
2021/01/26 11:02:49;;;;;;;0.68;0.63;;;;;;;2.69;97.88;96561.34;4937926;29;20042;-78
2021/01/26 11:05:16;;;;;;;0.30;0.30;;;;;;;2.66;96.98;96561.47;4941764;28;20024;-78
2021/01/26 11:07:41;;;;;;;1.27;1.17;;;;;;;2.73;97.31;96565.56;4934786;29;20488;-77
2021/01/26 11:10:08;;;;;;;0.20;0.20;;;;;;;2.65;97.04;96565.03;4935423;29;20088;-77
2021/01/26 11:12:35;;;;;;;0.93;0.90;;;;;;;2.53;97.57;96564.75;4949215;29;20035;-76
2021/01/26 11:15:01;;;;;;;0.30;0.30;;;;;;;2.59;96.77;96573.25;4953397;29;20035;-77
2021/01/26 11:17:26;;;;;;;1.50;0.77;;;;;;;2.56;97.37;96572.50;4949196;29;20040;-76
2021/01/26 11:19:52;;;;;;;0.82;0.82;;;;;;;2.56;96.03;96580.44;4911126;29;20485;-76
2021/01/26 11:22:18;;;;;;;0.73;0.73;;;;;;;2.60;95.83;96579.38;4919064;29;20035;-76
2021/01/26 11:24:44;;;;;;;1.27;1.15;;;;;;;2.69;95.67;96582.44;4950236;29;20043;-77
2021/01/26 11:27:11;;;;;;;0.70;0.70;;;;;;;2.72;96.21;96574.38;4922272;29;20031;-77
2021/01/26 11:29:37;;;;;;;1.95;1.83;;;;;;;2.71;95.78;96577.94;4923079;29;20039;-77
2021/01/26 11:32:04;;;;;;;0.60;0.60;;;;;;;2.55;95.04;96579.56;4919032;29;20087;-77
2021/01/26 11:34:30;;;;;;;0.60;0.60;;;;;;;2.48;94.98;96567.59;4935753;29;20038;-76
2021/01/26 11:36:55;;;;;;;0.60;0.60;;;;;;;2.52;96.04;96578.88;4942765;28;20036;-76
2021/01/26 11:39:21;;;;;;;0.38;0.38;;;;;;;2.33;96.58;96578.88;4928781;29;20082;-77
2021/01/26 11:41:47;;;;;;;1.95;0.60;;;;;;;2.17;97.33;96567.28;4935805;29;20032;-77
2021/01/26 11:44:12;;;;;;;3.03;1.40;;;;;;;2.19;98.05;96570.69;4934738;29;20028;-77
2021/01/26 11:46:38;;;;;;;0.30;0.30;;;;;;;2.18;98.38;96582.19;4943082;28;20032;-77
2021/01/26 11:49:04;;;;;;;0.98;0.88;;;;;;;2.10;98.54;96582.53;4933651;29;20119;-77
2021/01/26 11:51:29;;;;;;;1.05;0.63;;;;;;;2.14;99.24;96578.81;4932963;29;20036;-76
2021/01/26 11:53:56;;;;;;;2.08;1.90;;;;;;;2.08;99.29;96565.91;4917526;29;20115;-77
2021/01/26 11:56:22;;;;;;;0.20;0.20;;;;;;;2.11;99.41;96568.41;4941150;29;20024;-77
2021/01/26 11:58:49;;;;;;;0.47;0.47;;;;;;;2.05;99.39;96570.47;4917456;29;20485;-78
2021/01/26 12:01:16;;;;;;;0.90;0.85;;;;;;;2.12;100.00;96564.00;4916751;29;20449;-77